createdAt,value
2017-08-23T10:18:39.067Z,2.97
2017-08-23T10:19:47.052Z,2.83
2017-08-23T10:20:53.877Z,2.53
2017-08-23T10:22:00.246Z,3.50
2017-08-23T10:23:06.275Z,2.53
2017-08-23T10:24:12.282Z,3.10
2017-08-23T10:25:18.302Z,3.50
2017-08-23T10:26:24.534Z,3.05
2017-08-23T10:27:30.621Z,2.95
2017-08-23T10:28:36.650Z,3.25
2017-08-23T10:29:42.691Z,3.20
2017-08-23T10:30:48.713Z,3.10
2017-08-23T10:31:54.731Z,2.58
2017-08-23T10:33:00.830Z,2.87
2017-08-23T10:34:06.858Z,3.37
2017-08-23T10:35:12.923Z,2.90
2017-08-23T10:36:18.970Z,2.55
2017-08-23T10:37:25.014Z,3.30
2017-08-23T10:38:31.138Z,3.45
2017-08-23T10:39:37.216Z,2.60
2017-08-23T10:40:43.294Z,2.90
2017-08-23T10:41:49.394Z,3.50
2017-08-23T10:42:55.452Z,3.03
2017-08-23T10:44:01.552Z,3.20
2017-08-23T10:45:07.637Z,3.20
2017-08-23T10:46:13.711Z,2.80
2017-08-23T10:47:19.801Z,2.60
2017-08-23T10:48:25.897Z,2.60
2017-08-23T10:49:32.391Z,2.53
2017-08-23T10:50:38.691Z,2.97
2017-08-23T10:51:44.790Z,3.00
2017-08-23T10:52:50.842Z,3.00
2017-08-23T10:53:56.924Z,3.50
2017-08-23T10:55:03.015Z,3.22
2017-08-23T10:56:09.057Z,2.60
2017-08-23T10:57:15.100Z,3.58
2017-08-23T10:58:21.186Z,3.08
2017-08-23T10:59:27.241Z,3.35
2017-08-23T11:00:33.331Z,2.87
2017-08-23T11:01:39.414Z,3.30
2017-08-23T11:02:45.433Z,3.33
2017-08-23T11:03:51.458Z,3.45
2017-08-23T11:04:57.523Z,3.80
2017-08-23T11:06:03.578Z,4.12
2017-08-23T11:07:09.589Z,4.40
2017-08-23T11:08:15.631Z,3.70
2017-08-23T11:09:21.702Z,3.97
2017-08-23T11:10:27.754Z,4.35
2017-08-23T11:11:33.800Z,3.90
2017-08-23T11:12:39.831Z,4.00
2017-08-23T11:13:45.845Z,3.47
2017-08-23T11:14:51.926Z,3.97
2017-08-23T11:15:57.967Z,3.30
2017-08-23T11:17:04.021Z,3.70
2017-08-23T11:18:10.018Z,4.45
2017-08-23T11:19:16.081Z,5.22
2017-08-23T11:20:22.965Z,4.60
2017-08-23T11:21:30.124Z,5.50
2017-08-23T11:22:37.291Z,4.25
2017-08-23T11:23:44.145Z,3.80
2017-08-23T11:24:51.349Z,3.70
2017-08-23T11:25:58.476Z,3.60
2017-08-23T11:27:05.343Z,4.10
2017-08-23T11:28:12.628Z,3.50
2017-08-23T11:29:19.077Z,3.95
2017-08-23T11:30:25.156Z,3.90
2017-08-23T11:31:31.197Z,4.12
2017-08-23T11:32:37.058Z,4.00
2017-08-23T11:33:43.330Z,3.97
2017-08-23T11:34:49.390Z,3.65
2017-08-23T11:35:55.442Z,4.60
2017-08-23T11:37:01.539Z,2.80
2017-08-23T11:38:07.565Z,4.85
2017-08-23T11:39:13.632Z,5.70
2017-08-23T11:40:19.692Z,6.25
2017-08-23T11:41:25.711Z,5.10
2017-08-23T11:42:31.733Z,6.68
2017-08-23T11:43:37.775Z,5.85
2017-08-23T11:44:43.909Z,5.20
2017-08-23T11:45:49.945Z,5.10
2017-08-23T11:46:56.005Z,5.00
2017-08-23T11:48:02.114Z,4.07
2017-08-23T11:49:08.159Z,4.30
2017-08-23T11:50:14.976Z,5.20
2017-08-23T11:51:21.114Z,5.95
2017-08-23T11:52:27.237Z,5.90
2017-08-23T11:53:33.277Z,5.35
2017-08-23T11:54:39.292Z,5.15
2017-08-23T11:55:45.353Z,5.35
2017-08-23T11:56:51.379Z,6.28
2017-08-23T11:57:57.445Z,4.75
2017-08-23T11:59:03.495Z,4.87
2017-08-23T12:00:09.549Z,4.80
2017-08-23T12:01:15.660Z,5.00
2017-08-23T12:02:21.755Z,4.78
2017-08-23T12:03:27.754Z,5.47
2017-08-23T12:04:33.793Z,5.28
2017-08-23T12:05:39.842Z,5.10
2017-08-23T12:06:45.926Z,3.65
2017-08-23T12:07:51.957Z,4.60
2017-08-23T12:08:58.062Z,4.25
2017-08-23T12:10:04.156Z,4.60
2017-08-23T12:11:10.201Z,4.90
2017-08-23T12:12:16.342Z,4.40
2017-08-23T12:13:22.405Z,4.68
2017-08-23T12:14:28.528Z,3.90
2017-08-23T12:15:34.681Z,4.00
2017-08-23T12:16:40.755Z,4.07
2017-08-23T12:17:46.853Z,4.07
2017-08-23T12:18:52.929Z,4.32
2017-08-23T12:19:58.975Z,4.12
2017-08-23T12:21:05.004Z,4.72
2017-08-23T12:22:11.065Z,5.72
2017-08-23T12:23:17.138Z,4.87
2017-08-23T12:24:24.249Z,5.05
2017-08-23T12:25:32.702Z,5.37
2017-08-23T12:26:40.734Z,5.90
2017-08-23T12:27:48.618Z,5.35
2017-08-23T12:28:56.892Z,4.70
2017-08-23T12:30:05.589Z,4.25
2017-08-23T12:31:14.624Z,4.00
2017-08-23T12:32:23.917Z,3.55
2017-08-23T12:33:31.466Z,4.15
2017-08-23T12:34:39.688Z,3.70
2017-08-23T12:35:47.262Z,3.87
2017-08-23T12:36:55.364Z,3.42
2017-08-23T12:38:03.466Z,4.93
2017-08-23T12:39:12.142Z,4.18
2017-08-23T12:40:20.254Z,4.82
2017-08-23T12:41:28.536Z,5.05
2017-08-23T12:42:38.633Z,5.30
2017-08-23T12:43:47.810Z,6.12
2017-08-23T12:44:56.731Z,5.55
2017-08-23T12:46:06.006Z,5.40
2017-08-23T12:47:15.431Z,4.68
2017-08-23T12:48:25.264Z,5.30
2017-08-23T12:49:33.789Z,6.60
2017-08-23T12:50:41.944Z,4.45
2017-08-23T12:51:49.985Z,4.10
2017-08-23T12:52:59.633Z,5.60
2017-08-23T12:54:07.116Z,5.10
2017-08-23T12:55:15.281Z,4.55
2017-08-23T12:56:23.233Z,4.55
2017-08-23T12:57:31.420Z,3.37
2017-08-23T12:59:56.808Z,3.12
2017-08-23T13:01:03.858Z,3.37
2017-08-23T13:02:09.914Z,3.95
2017-08-23T13:03:15.985Z,4.32
2017-08-23T13:04:22.040Z,3.60
2017-08-23T13:05:28.085Z,3.72
2017-08-23T13:06:34.129Z,3.05
2017-08-23T13:07:40.198Z,2.80
2017-08-23T13:08:46.303Z,3.90
2017-08-23T13:09:52.386Z,3.60
2017-08-23T13:10:58.482Z,5.05
2017-08-23T13:12:04.552Z,3.80
2017-08-23T13:13:10.583Z,4.18
2017-08-23T13:14:16.648Z,4.15
2017-08-23T13:15:22.686Z,4.10
2017-08-23T13:16:28.734Z,3.95
2017-08-23T13:17:34.766Z,4.70
2017-08-23T13:18:40.820Z,5.15
2017-08-23T13:19:46.908Z,3.70
2017-08-23T13:20:52.985Z,3.55
2017-08-23T13:21:58.864Z,4.40
2017-08-23T13:23:04.912Z,4.18
2017-08-23T13:24:16.733Z,3.40
2017-08-23T13:25:23.338Z,3.37
2017-08-23T13:26:30.668Z,3.00
2017-08-23T13:27:39.694Z,4.12
2017-08-23T13:28:48.416Z,3.85
2017-08-23T13:29:56.068Z,3.40
2017-08-23T13:31:03.121Z,5.03
2017-08-23T13:32:10.064Z,5.50
2017-08-23T13:33:17.233Z,3.67
2017-08-23T13:34:25.763Z,3.50
2017-08-23T13:35:33.587Z,3.72
2017-08-23T13:36:40.196Z,3.70
2017-08-23T13:37:46.646Z,3.00
2017-08-23T13:38:53.936Z,2.90
2017-08-23T13:40:05.147Z,4.12
2017-08-23T13:41:14.216Z,3.72
2017-08-23T13:42:21.459Z,3.45
2017-08-23T13:43:29.418Z,3.30
2017-08-23T13:44:37.424Z,4.50
2017-08-23T13:45:45.874Z,4.43
2017-08-23T13:46:54.408Z,3.87
2017-08-23T13:48:06.407Z,3.95
2017-08-23T13:49:13.237Z,3.30
2017-08-23T13:50:20.383Z,3.45
2017-08-23T13:51:27.754Z,2.75
2017-08-23T13:52:35.438Z,3.25
2017-08-23T13:53:43.947Z,3.58
2017-08-23T13:54:50.920Z,4.00
2017-08-23T13:55:58.425Z,3.65
2017-08-23T13:57:04.545Z,3.92
2017-08-23T13:58:10.872Z,3.15
2017-08-23T13:59:16.979Z,4.55
2017-08-23T14:00:23.144Z,3.65
2017-08-23T14:01:29.021Z,3.70
2017-08-23T14:02:35.108Z,3.22
2017-08-23T14:03:41.224Z,3.35
2017-08-23T14:04:47.415Z,4.00
2017-08-23T14:05:53.483Z,3.35
2017-08-23T14:06:59.618Z,3.03
2017-08-23T14:08:05.799Z,3.90
2017-08-23T14:09:12.732Z,4.37
2017-08-23T14:10:18.915Z,4.72
2017-08-23T14:11:24.987Z,4.00
2017-08-23T14:12:31.628Z,4.25
2017-08-23T14:13:37.923Z,5.30
2017-08-23T14:14:43.951Z,5.20
2017-08-23T14:15:50.035Z,4.40
2017-08-23T14:16:56.069Z,4.93
2017-08-23T14:18:02.209Z,4.68
2017-08-23T14:19:08.275Z,3.87
2017-08-23T14:20:14.342Z,4.95
2017-08-23T14:21:20.446Z,5.43
2017-08-23T14:22:26.470Z,3.95
2017-08-23T14:23:32.534Z,4.87
2017-08-23T14:24:38.937Z,5.00
2017-08-23T14:25:45.040Z,4.80
2017-08-23T14:26:51.172Z,4.05
2017-08-23T14:27:57.414Z,4.12
2017-08-23T14:29:03.578Z,4.70
2017-08-23T14:30:09.640Z,3.35
2017-08-23T14:31:15.672Z,3.70
2017-08-23T14:32:21.789Z,3.50
2017-08-23T14:33:27.834Z,3.70
2017-08-23T14:34:33.897Z,3.60
2017-08-23T14:35:39.973Z,3.90
2017-08-23T14:36:46.002Z,3.50
2017-08-23T14:37:52.109Z,3.33
2017-08-23T14:38:58.144Z,3.30
2017-08-23T14:40:04.203Z,3.45
2017-08-23T14:41:10.254Z,3.35
2017-08-23T14:42:16.293Z,3.35
2017-08-23T14:43:22.383Z,3.78
2017-08-23T14:44:28.488Z,3.10
2017-08-23T14:45:34.634Z,3.85
2017-08-23T14:46:40.690Z,3.47
2017-08-23T14:47:46.721Z,2.95
2017-08-23T14:48:52.510Z,4.00
2017-08-23T14:49:58.580Z,3.75
2017-08-23T14:51:04.616Z,2.90
2017-08-23T14:52:10.658Z,2.95
2017-08-23T14:53:16.740Z,3.53
2017-08-23T14:54:22.826Z,3.75
2017-08-23T14:55:28.920Z,2.80
2017-08-23T14:56:34.942Z,3.33
2017-08-23T14:57:40.991Z,2.50
2017-08-23T14:58:47.092Z,3.62
2017-08-23T14:59:53.348Z,3.90
2017-08-23T15:00:59.874Z,3.12
2017-08-23T15:02:05.682Z,3.20
2017-08-23T15:03:11.849Z,4.25
2017-08-23T15:04:17.935Z,3.78
2017-08-23T15:05:24.139Z,3.55
2017-08-23T15:06:30.243Z,4.03
2017-08-23T15:07:36.379Z,4.30
2017-08-23T15:08:42.429Z,4.20
2017-08-23T15:09:48.481Z,3.80
2017-08-23T15:10:54.570Z,3.37
2017-08-23T15:12:00.645Z,2.83
2017-08-23T15:13:07.563Z,3.17
2017-08-23T15:14:13.618Z,3.17
2017-08-23T15:15:19.699Z,3.12
2017-08-23T15:16:26.158Z,3.33
2017-08-23T15:17:32.560Z,2.83
2017-08-23T15:18:38.420Z,2.78
2017-08-23T15:19:44.469Z,3.20
2017-08-23T15:20:50.549Z,2.67
2017-08-23T15:21:56.698Z,3.15
2017-08-23T15:23:03.057Z,2.90
2017-08-23T15:24:09.093Z,3.00
2017-08-23T15:25:15.248Z,4.35
2017-08-23T15:26:21.333Z,3.30
2017-08-23T15:27:27.036Z,2.70
2017-08-23T15:28:33.113Z,3.25
2017-08-23T15:29:39.184Z,3.05
2017-08-23T15:30:45.225Z,3.40
2017-08-23T15:31:51.404Z,3.35
2017-08-23T15:32:57.679Z,3.17
2017-08-23T15:34:03.640Z,3.10
2017-08-23T15:35:09.696Z,3.30
2017-08-23T15:36:15.555Z,3.17
2017-08-23T15:37:21.831Z,3.10
2017-08-23T15:38:27.709Z,3.43
2017-08-23T15:39:33.900Z,2.77
2017-08-23T15:40:40.363Z,3.50
2017-08-23T15:41:46.445Z,3.07
2017-08-23T15:42:52.176Z,3.10
2017-08-23T15:43:57.965Z,3.60
2017-08-23T15:45:03.712Z,3.00
2017-08-23T15:46:09.466Z,3.30
2017-08-23T15:47:15.226Z,3.70
2017-08-23T15:48:20.953Z,2.83
2017-08-23T15:49:26.774Z,3.20
2017-08-23T15:50:32.548Z,3.07
2017-08-23T15:51:38.270Z,2.60
2017-08-23T15:52:44.037Z,3.00
2017-08-23T15:53:49.838Z,3.57
2017-08-23T15:54:55.633Z,3.10
2017-08-23T15:56:01.370Z,3.50
2017-08-23T15:57:07.113Z,3.90
2017-08-23T15:58:13.103Z,3.30
2017-08-23T15:59:18.875Z,3.40
2017-08-23T16:00:24.704Z,3.30
2017-08-23T16:01:30.252Z,3.17
2017-08-23T16:02:36.030Z,3.37
2017-08-23T16:03:41.815Z,3.17
2017-08-23T16:04:47.580Z,3.10
2017-08-23T16:05:53.359Z,3.53
2017-08-23T16:06:59.106Z,3.20
2017-08-23T16:08:04.868Z,3.20
2017-08-23T16:09:12.542Z,3.03
2017-08-23T16:10:22.104Z,2.97
2017-08-23T16:11:31.216Z,2.93
2017-08-23T16:12:41.101Z,2.50
2017-08-23T16:13:51.644Z,2.80
2017-08-23T16:14:59.994Z,3.17
2017-08-23T16:16:05.925Z,2.80
2017-08-23T16:17:12.670Z,2.20
2017-08-23T16:18:20.261Z,2.70
2017-08-23T16:19:28.665Z,2.83
2017-08-23T16:20:38.161Z,2.33
2017-08-23T16:21:45.957Z,2.80
2017-08-23T16:22:52.853Z,2.40
2017-08-23T16:24:00.569Z,2.80
2017-08-23T16:25:08.956Z,2.60
2017-08-23T16:26:15.956Z,2.40
2017-08-23T16:27:22.596Z,2.70
2017-08-23T16:28:28.455Z,2.63
2017-08-23T16:29:34.218Z,3.03
2017-08-23T16:30:39.987Z,2.80
2017-08-23T16:31:46.710Z,2.77
2017-08-23T16:32:53.070Z,2.70
2017-08-23T16:33:58.920Z,2.83
2017-08-23T16:35:04.743Z,2.70
2017-08-23T16:36:10.521Z,3.30
2017-08-23T16:37:17.550Z,3.00
2017-08-23T16:38:25.226Z,2.50
2017-08-23T16:39:33.658Z,2.93
2017-08-23T16:40:43.185Z,2.90
2017-08-23T16:41:52.472Z,2.50
2017-08-23T16:43:01.201Z,2.67
2017-08-23T16:44:10.176Z,2.60
2017-08-23T16:45:18.742Z,2.70
2017-08-23T16:46:25.638Z,2.37
2017-08-23T16:47:33.016Z,2.23
2017-08-23T16:48:42.331Z,2.80
2017-08-23T16:49:50.988Z,2.43
2017-08-23T16:51:00.849Z,2.07
2017-08-23T16:52:10.536Z,2.67
2017-08-23T16:53:19.551Z,2.20
2017-08-23T16:54:29.648Z,2.47
2017-08-23T16:55:39.122Z,2.70
2017-08-23T16:56:50.799Z,2.62
2017-08-23T16:57:59.678Z,2.73
2017-08-23T16:59:09.365Z,2.50
2017-08-23T17:00:20.914Z,2.60
2017-08-23T17:01:29.637Z,2.40
2017-08-23T17:02:37.111Z,2.70
2017-08-23T17:03:45.709Z,2.28
2017-08-23T17:04:54.656Z,3.12
2017-08-23T17:06:04.355Z,2.55
2017-08-23T17:07:12.593Z,2.60
2017-08-23T17:08:22.138Z,2.70
2017-08-23T17:09:30.545Z,2.55
2017-08-23T17:10:38.080Z,3.40
2017-08-23T17:11:47.231Z,3.28
2017-08-23T17:12:56.354Z,3.17
2017-08-23T17:14:02.925Z,2.97
2017-08-23T17:15:09.178Z,2.87
2017-08-23T17:16:16.653Z,2.50
2017-08-23T17:17:23.955Z,2.85
2017-08-23T17:18:30.302Z,3.08
2017-08-23T17:19:36.530Z,3.03
2017-08-23T17:20:43.879Z,3.25
2017-08-23T17:21:50.012Z,2.80
2017-08-23T17:22:56.872Z,2.65
2017-08-23T17:24:03.070Z,2.65
2017-08-23T17:25:10.289Z,3.10
2017-08-23T17:26:16.672Z,2.80
2017-08-23T17:27:22.521Z,2.53
2017-08-23T17:28:28.766Z,2.80
2017-08-23T17:29:35.298Z,2.53
2017-08-23T17:30:42.008Z,2.70
2017-08-23T17:31:49.671Z,3.00
2017-08-23T17:32:57.857Z,2.83
2017-08-23T17:34:04.174Z,2.67
2017-08-23T17:35:10.769Z,3.40
2017-08-23T17:36:17.638Z,2.75
2017-08-23T17:37:25.286Z,2.80
2017-08-23T17:38:32.255Z,3.25
2017-08-23T17:39:39.399Z,2.97
2017-08-23T17:40:45.760Z,3.15
2017-08-23T17:41:52.233Z,3.00
2017-08-23T17:42:59.155Z,3.00
2017-08-23T17:44:05.493Z,3.50
2017-08-23T17:45:11.842Z,3.33
2017-08-23T17:46:18.066Z,3.10
2017-08-23T17:47:24.272Z,3.10
2017-08-23T17:48:30.236Z,3.25
2017-08-23T17:49:36.441Z,3.50
2017-08-23T17:50:43.565Z,3.28
2017-08-23T17:51:49.671Z,3.00
2017-08-23T17:52:55.892Z,3.03
2017-08-23T17:54:02.125Z,3.53
2017-08-23T17:55:08.469Z,3.83
2017-08-23T17:56:15.449Z,3.75
2017-08-23T17:57:22.100Z,3.37
2017-08-23T17:58:29.024Z,3.35
2017-08-23T17:59:36.190Z,4.30
2017-08-23T18:00:42.455Z,3.55
2017-08-23T18:01:49.598Z,3.62
2017-08-23T18:02:55.846Z,2.95
2017-08-23T18:04:01.974Z,3.85
2017-08-23T18:05:08.175Z,3.97
2017-08-23T18:06:14.463Z,3.90
2017-08-23T18:07:20.611Z,4.03
2017-08-23T18:08:27.001Z,4.03
2017-08-23T18:09:33.113Z,4.40
2017-08-23T18:10:39.290Z,4.40
2017-08-23T18:11:46.142Z,3.55
2017-08-23T18:12:53.513Z,4.57
2017-08-23T18:14:02.616Z,4.35
2017-08-23T18:15:11.496Z,6.87
2017-08-23T18:16:17.855Z,4.90
2017-08-23T18:17:24.270Z,4.87
2017-08-23T18:18:30.674Z,5.03
2017-08-23T18:19:36.666Z,4.95
2017-08-23T18:20:44.516Z,4.95
2017-08-23T18:21:52.728Z,4.30
2017-08-23T18:23:01.724Z,5.35
2017-08-23T18:24:08.826Z,4.68
2017-08-23T18:25:17.600Z,5.12
2017-08-23T18:26:24.071Z,5.47
2017-08-23T18:27:31.606Z,5.82
2017-08-23T18:28:39.631Z,5.80
2017-08-23T18:29:47.366Z,6.35
2017-08-23T18:30:55.116Z,5.45
2017-08-23T18:32:02.899Z,8.02
2017-08-23T18:33:11.424Z,5.10
2017-08-23T18:34:21.242Z,5.22
2017-08-23T18:35:29.454Z,7.05
2017-08-23T18:36:37.750Z,5.30
2017-08-23T18:37:49.184Z,5.60
2017-08-23T18:38:58.407Z,5.30
2017-08-23T18:40:07.086Z,5.95
2017-08-23T18:41:15.511Z,5.07
2017-08-23T18:42:24.802Z,6.50
2017-08-23T18:43:33.076Z,6.00
2017-08-23T18:44:40.877Z,5.93
2017-08-23T18:45:48.399Z,6.37
2017-08-23T18:46:56.470Z,5.90
2017-08-23T18:48:04.592Z,5.35
2017-08-23T18:49:11.770Z,6.12
2017-08-23T18:50:19.085Z,6.18
2017-08-23T18:51:33.807Z,5.90
2017-08-23T18:52:44.883Z,5.35
2017-08-23T18:53:51.628Z,5.03
2017-08-23T18:54:59.549Z,5.65
2017-08-23T18:56:07.425Z,6.00
2017-08-23T18:57:13.990Z,6.00
2017-08-23T18:58:20.736Z,6.43
2017-08-23T18:59:27.927Z,6.53
2017-08-23T19:00:35.851Z,5.45
2017-08-23T19:01:43.181Z,6.18
2017-08-23T19:02:50.253Z,6.20
2017-08-23T19:03:56.566Z,5.70
2017-08-23T19:05:02.705Z,5.47
2017-08-23T19:06:08.768Z,6.22
2017-08-23T19:07:17.466Z,5.70
2017-08-23T19:08:25.890Z,6.22
2017-08-23T19:09:34.152Z,5.65
2017-08-23T19:10:42.502Z,6.00
2017-08-23T19:11:50.997Z,6.22
2017-08-23T19:12:59.188Z,6.03
2017-08-23T19:14:07.564Z,6.20
2017-08-23T19:15:16.064Z,5.53
2017-08-23T19:16:25.027Z,6.12
2017-08-23T19:17:33.861Z,6.03
2017-08-23T19:18:42.825Z,5.93
2017-08-23T19:19:51.696Z,6.28
2017-08-23T19:20:58.725Z,6.03
2017-08-23T19:22:04.868Z,6.25
2017-08-23T19:23:13.063Z,5.62
2017-08-23T19:24:21.687Z,5.70
2017-08-23T19:25:30.697Z,5.40
2017-08-23T19:26:38.273Z,5.75
2017-08-23T19:27:47.613Z,5.62
2017-08-23T19:28:56.956Z,5.75
2017-08-23T19:30:06.166Z,6.22
2017-08-23T19:31:12.345Z,6.12
2017-08-23T19:32:21.016Z,5.80
2017-08-23T19:33:29.957Z,5.28
2017-08-23T19:34:38.212Z,5.40
2017-08-23T19:35:45.642Z,5.45
2017-08-23T19:36:55.802Z,5.85
2017-08-23T19:38:04.284Z,5.93
2017-08-23T19:39:13.861Z,5.60
2017-08-23T19:40:22.761Z,5.70
2017-08-23T19:41:30.921Z,6.10
2017-08-23T19:42:40.447Z,5.97
2017-08-23T19:43:48.996Z,6.03
2017-08-23T19:44:58.141Z,5.10
2017-08-23T19:46:06.643Z,5.43
2017-08-23T19:47:14.227Z,5.20
2017-08-23T19:48:23.171Z,5.45
2017-08-23T19:49:32.234Z,4.60
2017-08-23T19:50:44.493Z,5.62
2017-08-23T19:51:52.098Z,5.15
2017-08-23T19:53:00.685Z,5.50
2017-08-23T19:54:09.514Z,5.60
2017-08-23T19:55:17.591Z,5.22
2017-08-23T19:56:25.846Z,5.20
2017-08-23T19:57:34.235Z,4.97
2017-08-23T19:58:42.340Z,6.45
2017-08-23T19:59:49.973Z,5.57
2017-08-23T20:00:59.195Z,5.05
2017-08-23T20:02:06.866Z,6.30
2017-08-23T20:03:16.102Z,5.20
2017-08-23T20:04:23.716Z,5.62
2017-08-23T20:05:32.609Z,5.22
2017-08-23T20:06:41.886Z,5.53
2017-08-23T20:07:50.556Z,5.57
2017-08-23T20:08:58.737Z,4.80
2017-08-23T20:10:07.159Z,6.10
2017-08-23T20:11:14.199Z,4.82
2017-08-23T20:12:21.811Z,5.20
2017-08-23T20:13:29.201Z,5.68
2017-08-23T20:14:37.252Z,5.47
2017-08-23T20:15:46.847Z,6.07
2017-08-23T20:16:56.130Z,5.60
2017-08-23T20:18:05.833Z,5.35
2017-08-23T20:19:13.534Z,6.00
2017-08-23T20:20:21.703Z,5.70
2017-08-23T20:21:30.572Z,6.10
2017-08-23T20:22:40.188Z,5.65
2017-08-23T20:23:48.645Z,5.55
2017-08-23T20:24:57.061Z,5.60
2017-08-23T20:26:06.277Z,6.10
2017-08-23T20:27:15.237Z,5.05
2017-08-23T20:28:24.676Z,5.97
2017-08-23T20:29:32.289Z,5.37
2017-08-23T20:30:39.785Z,6.37
2017-08-23T20:31:47.783Z,5.95
2017-08-23T20:32:55.321Z,6.03
2017-08-23T20:34:01.427Z,6.25
2017-08-23T20:35:07.455Z,6.25
2017-08-23T20:36:13.507Z,6.22
2017-08-23T20:37:19.545Z,5.72
2017-08-23T20:38:25.573Z,5.82
2017-08-23T20:39:31.672Z,6.78
2017-08-23T20:40:37.718Z,6.78
2017-08-23T20:41:43.745Z,5.90
2017-08-23T20:42:49.870Z,5.72
2017-08-23T20:43:56.019Z,6.05
2017-08-23T20:45:02.376Z,7.12
2017-08-23T20:46:08.320Z,6.47
2017-08-23T20:47:14.378Z,6.40
2017-08-23T20:48:20.439Z,6.47
2017-08-23T20:49:26.520Z,7.03
2017-08-23T20:50:34.044Z,6.97
2017-08-23T20:51:40.117Z,7.07
2017-08-23T20:52:46.190Z,6.85
2017-08-23T20:53:52.284Z,6.60
2017-08-23T20:54:58.439Z,7.10
2017-08-23T20:56:04.603Z,6.22
2017-08-23T20:57:10.717Z,6.72
2017-08-23T20:58:16.779Z,6.55
2017-08-23T20:59:22.862Z,6.60
2017-08-23T21:00:28.960Z,6.15
2017-08-23T21:01:35.072Z,6.87
2017-08-23T21:02:41.161Z,7.15
2017-08-23T21:03:47.193Z,7.35
2017-08-23T21:04:53.289Z,8.45
2017-08-23T21:05:58.966Z,6.95
2017-08-23T21:07:05.091Z,6.57
2017-08-23T21:08:11.162Z,6.97
2017-08-23T21:09:17.230Z,7.40
2017-08-23T21:10:23.326Z,6.80
2017-08-23T21:11:29.387Z,7.62
2017-08-23T21:12:35.533Z,6.60
2017-08-23T21:13:41.655Z,7.70
2017-08-23T21:14:47.786Z,8.18
2017-08-23T21:15:53.846Z,7.85
2017-08-23T21:16:59.928Z,7.22
2017-08-23T21:18:06.013Z,8.05
2017-08-23T21:19:12.098Z,8.10
2017-08-23T21:20:18.152Z,8.27
2017-08-23T21:21:24.197Z,7.75
2017-08-23T21:22:30.231Z,7.65
2017-08-23T21:23:36.321Z,8.10
2017-08-23T21:24:42.428Z,7.65
2017-08-23T21:25:48.537Z,7.32
2017-08-23T21:26:54.612Z,6.60
2017-08-23T21:28:00.750Z,8.00
2017-08-23T21:29:06.858Z,7.20
2017-08-23T21:30:12.964Z,7.20
2017-08-23T21:31:19.092Z,8.10
2017-08-23T21:32:24.505Z,7.40
2017-08-23T21:33:30.625Z,7.65
2017-08-23T21:34:36.801Z,7.12
2017-08-23T21:35:42.909Z,8.13
2017-08-23T21:36:49.043Z,7.65
2017-08-23T21:37:55.144Z,7.43
2017-08-23T21:39:01.218Z,7.55
2017-08-23T21:40:07.411Z,7.68
2017-08-23T21:41:13.507Z,8.18
2017-08-23T21:42:19.657Z,7.28
2017-08-23T21:43:25.772Z,7.25
2017-08-23T21:44:31.899Z,7.32
2017-08-23T21:45:38.070Z,8.68
2017-08-23T21:46:44.461Z,8.63
2017-08-23T21:47:50.495Z,8.63
2017-08-23T21:48:56.497Z,8.20
2017-08-23T21:50:02.650Z,8.23
2017-08-23T21:51:08.824Z,7.93
2017-08-23T21:52:14.931Z,8.38
2017-08-23T21:53:21.017Z,8.98
2017-08-23T21:54:27.094Z,7.60
2017-08-23T21:55:33.230Z,9.60
2017-08-23T21:56:39.358Z,8.98
2017-08-23T21:57:45.448Z,8.10
2017-08-23T21:58:51.533Z,8.20
2017-08-23T21:59:57.618Z,8.00
2017-08-23T22:01:03.949Z,8.63
2017-08-23T22:02:10.087Z,8.63
2017-08-23T22:03:16.131Z,8.77
2017-08-23T22:04:22.281Z,7.93
2017-08-23T22:05:28.461Z,8.40
2017-08-23T22:06:34.728Z,7.50
2017-08-23T22:07:41.032Z,7.85
2017-08-23T22:08:47.174Z,7.85
2017-08-23T22:09:53.294Z,7.65
2017-08-23T22:10:59.413Z,8.20
2017-08-23T22:12:05.472Z,7.93
2017-08-23T22:13:11.641Z,7.57
2017-08-23T22:14:17.742Z,7.75
2017-08-23T22:15:23.867Z,8.32
2017-08-23T22:16:29.969Z,8.02
2017-08-23T22:17:36.026Z,8.93
2017-08-23T22:18:42.188Z,7.87
2017-08-23T22:19:48.338Z,8.65
2017-08-23T22:20:54.461Z,8.70
2017-08-23T22:22:00.578Z,8.25
2017-08-23T22:23:06.663Z,8.45
2017-08-23T22:24:12.761Z,7.65
2017-08-23T22:25:18.929Z,8.63
2017-08-23T22:26:24.986Z,8.45
2017-08-23T22:27:31.087Z,8.45
2017-08-23T22:28:37.178Z,8.50
2017-08-23T22:29:43.361Z,8.57
2017-08-23T22:30:49.569Z,8.65
2017-08-23T22:31:55.467Z,9.02
2017-08-23T22:33:01.627Z,7.80
2017-08-23T22:34:07.911Z,8.02
2017-08-23T22:35:14.171Z,8.13
2017-08-23T22:36:20.338Z,7.00
2017-08-23T22:37:26.375Z,7.82
2017-08-23T22:38:32.502Z,8.05
2017-08-23T22:39:38.559Z,8.15
2017-08-23T22:40:44.741Z,7.87
2017-08-23T22:41:50.871Z,7.28
2017-08-23T22:42:56.954Z,8.60
2017-08-23T22:44:03.176Z,7.40
2017-08-23T22:45:09.253Z,7.50
2017-08-23T22:46:15.389Z,7.30
2017-08-23T22:47:21.576Z,7.20
2017-08-23T22:48:27.715Z,7.97
2017-08-23T22:49:33.836Z,7.90
2017-08-23T22:50:39.915Z,7.47
2017-08-23T22:51:45.994Z,6.93
2017-08-23T22:52:52.208Z,7.80
2017-08-23T22:53:58.360Z,7.50
2017-08-23T22:55:04.504Z,7.47
2017-08-23T22:56:10.790Z,7.70
2017-08-23T22:57:17.707Z,7.20
2017-08-23T22:58:23.876Z,6.57
2017-08-23T22:59:29.991Z,6.80
2017-08-23T23:00:36.083Z,7.68
2017-08-23T23:01:42.009Z,7.32
2017-08-23T23:02:48.082Z,7.75
2017-08-23T23:03:54.201Z,7.57
2017-08-23T23:05:00.341Z,7.90
2017-08-23T23:06:06.444Z,7.70
2017-08-23T23:07:12.524Z,6.95
2017-08-23T23:08:18.657Z,7.43
2017-08-23T23:09:24.850Z,7.20
2017-08-23T23:10:31.006Z,6.55
2017-08-23T23:11:37.337Z,7.80
2017-08-23T23:12:43.477Z,7.05
2017-08-23T23:13:49.691Z,6.80
2017-08-23T23:14:55.841Z,6.97
2017-08-23T23:16:01.901Z,7.12
2017-08-23T23:17:08.026Z,7.60
2017-08-23T23:18:14.212Z,7.00
2017-08-23T23:19:21.073Z,8.00
2017-08-23T23:20:27.752Z,7.20
2017-08-23T23:21:33.967Z,7.65
2017-08-23T23:22:41.135Z,7.50
2017-08-23T23:23:47.327Z,7.90
2017-08-23T23:24:54.410Z,7.78
2017-08-23T23:26:00.502Z,7.35
2017-08-23T23:27:06.602Z,8.07
2017-08-23T23:28:12.654Z,7.60
2017-08-23T23:29:18.687Z,7.57
2017-08-23T23:30:24.839Z,7.37
2017-08-23T23:31:30.924Z,7.32
2017-08-23T23:32:36.982Z,7.53
2017-08-23T23:33:43.075Z,8.05
2017-08-23T23:34:49.220Z,8.00
2017-08-23T23:35:55.446Z,7.97
2017-08-23T23:37:02.018Z,7.47
2017-08-23T23:38:08.744Z,7.22
2017-08-23T23:39:14.977Z,7.37
2017-08-23T23:40:23.296Z,7.20
2017-08-23T23:41:29.993Z,6.65
2017-08-23T23:42:36.235Z,7.30
2017-08-23T23:43:42.363Z,8.07
2017-08-23T23:44:48.494Z,7.65
2017-08-23T23:45:54.808Z,7.25
2017-08-23T23:47:00.944Z,7.80
2017-08-23T23:48:07.062Z,7.60
2017-08-23T23:49:13.136Z,8.15
2017-08-23T23:50:19.226Z,7.32
2017-08-23T23:51:25.312Z,8.88
2017-08-23T23:52:31.445Z,8.05
2017-08-23T23:53:37.580Z,8.40
2017-08-23T23:54:43.659Z,8.15
2017-08-23T23:55:49.780Z,7.65
2017-08-23T23:56:55.934Z,7.30
2017-08-23T23:58:02.049Z,7.85
2017-08-23T23:59:08.166Z,7.87
